Time;durP1;ratioP1;P1;durP2;ratioP2;P2;SDS_P1;SDS_P2;PMS_P1;PMS_P2;Temp;Humidity;BMP_temperature;BMP_pressure;BME280_temperature;BME280_humidity;BME280_pressure;Samples;Min_cycle;Max_cycle;Signal;HPM_P1;HPM_P2
2022/07/02 00:00:05;;;;;;;1.47;1.00;;;15.50;99.90;;;;;;4997614;28;20179;-79
2022/07/02 00:02:36;;;;;;;1.10;1.00;;;15.40;99.90;;;;;;4996914;28;20185;-79
2022/07/02 00:05:05;;;;;;;1.10;0.80;;;15.40;99.90;;;;;;4997452;28;20444;-79
2022/07/02 00:07:34;;;;;;;1.03;0.93;;;15.40;99.90;;;;;;4980018;28;20429;-78
2022/07/02 00:10:00;;;;;;;1.30;1.10;;;15.40;99.90;;;;;;4995498;28;20428;-79
2022/07/02 00:12:27;;;;;;;1.47;0.80;;;15.40;99.90;;;;;;5013850;28;20486;-79
2022/07/02 00:14:56;;;;;;;2.13;0.90;;;15.40;99.90;;;;;;4995994;28;20232;-78
2022/07/02 00:17:26;;;;;;;3.27;1.00;;;15.40;99.90;;;;;;5013452;28;20467;-78
2022/07/02 00:19:53;;;;;;;1.63;1.00;;;15.30;99.90;;;;;;5013583;28;20419;-79
2022/07/02 00:22:20;;;;;;;1.00;0.80;;;15.30;99.90;;;;;;4996023;28;20425;-79
2022/07/02 00:24:46;;;;;;;2.30;0.73;;;15.30;99.90;;;;;;5014313;28;20492;-79
2022/07/02 00:27:18;;;;;;;2.00;0.93;;;15.30;99.90;;;;;;5014476;28;20905;-79
2022/07/02 00:30:01;;;;;;;0.90;0.83;;;15.30;99.90;;;;;;4996526;28;21002;-78
2022/07/02 00:32:30;;;;;;;1.83;0.83;;;15.30;99.90;;;;;;4995794;28;20528;-78
2022/07/02 00:34:57;;;;;;;1.93;1.00;;;15.20;99.90;;;;;;4995692;28;20462;-78
2022/07/02 00:37:27;;;;;;;1.10;0.87;;;15.20;99.90;;;;;;5012612;28;20598;-78
2022/07/02 00:39:56;;;;;;;1.03;0.87;;;15.10;99.90;;;;;;5011479;28;20565;-77
2022/07/02 00:42:25;;;;;;;2.03;1.00;;;15.10;99.90;;;;;;4993098;28;20428;-77
2022/07/02 00:44:52;;;;;;;1.50;1.07;;;15.00;99.90;;;;;;5012013;28;20479;-78
2022/07/02 00:47:21;;;;;;;4.33;1.20;;;15.00;99.90;;;;;;4994500;28;20838;-78
2022/07/02 00:49:48;;;;;;;1.43;1.00;;;14.90;99.90;;;;;;5013129;28;20424;-78
2022/07/02 00:52:13;;;;;;;1.00;0.93;;;14.80;99.90;;;;;;4980761;28;20576;-78
2022/07/02 00:54:39;;;;;;;2.30;0.97;;;14.80;99.90;;;;;;5011342;28;20527;-77
2022/07/02 00:57:06;;;;;;;8.27;0.90;;;14.90;99.90;;;;;;4993523;28;20217;-77
2022/07/02 00:59:33;;;;;;;2.20;0.63;;;14.90;99.90;;;;;;5010822;28;20650;-77
2022/07/02 01:01:59;;;;;;;1.63;0.90;;;14.90;99.90;;;;;;5010971;28;20457;-78
2022/07/02 01:04:29;;;;;;;1.30;0.90;;;14.90;99.90;;;;;;5010498;28;20463;-76
2022/07/02 01:07:00;;;;;;;4.70;1.10;;;14.90;99.90;;;;;;4992381;28;20439;-77
2022/07/02 01:12:16;;;;;;;1.63;0.90;;;14.70;99.90;;;;;;5011077;28;20459;-77
2022/07/02 01:14:42;;;;;;;5.37;1.63;;;14.70;99.90;;;;;;4993030;28;20483;-77
2022/07/02 01:17:08;;;;;;;2.53;2.30;;;14.60;99.90;;;;;;5010404;28;20542;-77
2022/07/02 01:19:33;;;;;;;3.47;2.47;;;14.60;99.90;;;;;;4993012;28;20425;-77
2022/07/02 01:22:15;;;;;;;2.50;2.30;;;14.40;99.90;;;;;;5010790;28;20292;-76
2022/07/02 01:24:43;;;;;;;4.10;2.53;;;14.20;99.90;;;;;;5010865;28;20200;-77
2022/07/02 01:27:09;;;;;;;9.87;3.70;;;14.10;99.90;;;;;;4976745;28;20420;-77
2022/07/02 01:29:35;;;;;;;3.70;3.30;;;14.00;99.90;;;;;;5019832;28;20413;-77
2022/07/02 01:32:01;;;;;;;3.27;3.00;;;14.00;99.90;;;;;;4994253;28;20503;-77
2022/07/02 01:34:27;;;;;;;6.13;2.97;;;13.80;99.90;;;;;;4992819;28;20216;-77
2022/07/02 01:36:53;;;;;;;3.43;2.17;;;13.80;99.90;;;;;;5010673;28;21053;-78
2022/07/02 01:39:25;;;;;;;2.30;2.07;;;13.80;99.90;;;;;;4993743;28;20526;-79
2022/07/02 01:41:51;;;;;;;6.17;2.60;;;13.80;99.90;;;;;;4995121;28;20177;-79
2022/07/02 01:44:16;;;;;;;5.30;2.20;;;13.80;99.90;;;;;;4979362;28;20490;-79
2022/07/02 01:46:44;;;;;;;3.20;1.93;;;13.80;99.90;;;;;;4978938;28;20664;-79
2022/07/02 01:49:10;;;;;;;7.00;2.03;;;13.80;99.90;;;;;;5013320;28;20181;-80
2022/07/02 01:51:36;;;;;;;3.63;2.47;;;13.80;99.90;;;;;;4994482;28;20498;-80
2022/07/02 01:54:03;;;;;;;7.93;2.93;;;13.70;99.90;;;;;;5012750;28;20440;-80
2022/07/02 01:56:34;;;;;;;6.03;2.20;;;13.70;99.90;;;;;;5012514;28;20215;-79
2022/07/02 01:58:59;;;;;;;5.43;2.40;;;13.60;99.90;;;;;;5012385;28;20505;-78
2022/07/02 02:01:25;;;;;;;6.80;2.53;;;13.50;99.90;;;;;;4992282;28;20424;-76
2022/07/02 02:03:51;;;;;;;3.13;2.07;;;13.40;99.90;;;;;;4991943;28;20670;-76
2022/07/02 02:06:16;;;;;;;3.30;2.00;;;13.40;99.90;;;;;;5009655;28;20247;-77
2022/07/02 02:08:42;;;;;;;2.20;2.10;;;13.40;99.90;;;;;;4991868;28;20197;-78
2022/07/02 02:11:08;;;;;;;2.40;2.20;;;13.40;99.90;;;;;;5009614;28;20188;-78
2022/07/02 02:13:33;;;;;;;2.60;2.40;;;13.30;99.90;;;;;;5009390;28;20713;-78
2022/07/02 02:15:59;;;;;;;3.20;2.10;;;13.40;99.90;;;;;;5009123;28;20227;-78
2022/07/02 02:18:24;;;;;;;3.53;2.20;;;13.30;99.90;;;;;;4991485;28;20550;-78
2022/07/02 02:20:50;;;;;;;2.70;2.27;;;13.30;99.90;;;;;;4991669;28;20197;-77
2022/07/02 02:23:15;;;;;;;2.90;2.10;;;13.20;99.90;;;;;;4991549;28;20189;-78
2022/07/02 02:25:41;;;;;;;2.93;2.20;;;13.20;99.90;;;;;;4991492;28;20748;-78
2022/07/02 02:28:07;;;;;;;2.77;2.57;;;13.20;99.90;;;;;;4991782;28;20732;-78
2022/07/02 02:30:32;;;;;;;2.37;2.17;;;13.30;99.90;;;;;;4991589;28;20186;-79
2022/07/02 02:32:58;;;;;;;8.70;2.13;;;13.30;99.90;;;;;;5009376;28;20185;-78
2022/07/02 02:35:24;;;;;;;2.17;1.93;;;13.30;99.90;;;;;;4991404;28;20342;-77
2022/07/02 02:37:49;;;;;;;3.00;2.13;;;13.30;99.90;;;;;;4991259;28;20222;-78
2022/07/02 02:40:15;;;;;;;1.93;1.83;;;13.30;99.90;;;;;;4975480;28;20682;-78
2022/07/02 02:42:41;;;;;;;1.73;1.63;;;13.30;99.90;;;;;;5009339;28;20686;-78
2022/07/02 02:45:07;;;;;;;1.80;1.70;;;13.20;99.90;;;;;;5010309;28;20563;-79
2022/07/02 02:47:32;;;;;;;9.13;2.53;;;13.10;99.90;;;;;;4991863;28;20200;-77
2022/07/02 02:49:58;;;;;;;2.70;2.30;;;13.10;99.90;;;;;;4991170;28;20974;-77
2022/07/02 02:52:24;;;;;;;4.77;2.23;;;13.00;99.90;;;;;;5008892;28;20207;-77
2022/07/02 02:54:49;;;;;;;2.93;2.17;;;12.90;99.90;;;;;;5008781;28;20212;-77
2022/07/02 02:57:15;;;;;;;2.43;2.23;;;12.90;99.90;;;;;;4990815;28;20212;-77
2022/07/02 02:59:40;;;;;;;2.20;2.00;;;12.90;99.90;;;;;;5008724;28;20218;-77
2022/07/02 03:02:07;;;;;;;2.10;1.90;;;12.90;99.90;;;;;;4990955;28;20209;-77
2022/07/02 03:04:33;;;;;;;3.40;2.40;;;12.90;99.90;;;;;;4990733;28;20201;-77
2022/07/02 03:06:58;;;;;;;5.40;3.10;;;12.90;99.90;;;;;;5008647;28;20427;-77
2022/07/02 03:09:24;;;;;;;2.53;2.33;;;12.90;99.90;;;;;;4990879;28;20285;-78
2022/07/02 03:11:50;;;;;;;2.70;2.50;;;12.80;99.90;;;;;;4974576;28;20200;-78
2022/07/02 03:14:15;;;;;;;2.60;2.40;;;12.80;99.90;;;;;;5008714;28;20205;-79
2022/07/02 03:16:41;;;;;;;3.00;2.63;;;12.80;99.90;;;;;;4991025;28;20213;-79
2022/07/02 03:19:06;;;;;;;3.60;2.67;;;12.80;99.90;;;;;;4974828;28;20207;-79
2022/07/02 03:21:32;;;;;;;2.87;2.67;;;12.70;99.90;;;;;;4991021;28;20676;-79
2022/07/02 03:23:58;;;;;;;3.03;2.63;;;12.70;99.90;;;;;;4990989;28;20188;-79
2022/07/02 03:26:23;;;;;;;3.60;2.43;;;12.70;99.90;;;;;;4974618;28;20375;-78
2022/07/02 03:28:49;;;;;;;5.30;2.63;;;12.70;99.90;;;;;;4975826;28;20620;-77
2022/07/02 03:31:18;;;;;;;3.10;2.73;;;12.60;99.90;;;;;;4994783;28;20275;-80
2022/07/02 03:33:43;;;;;;;3.60;2.53;;;12.60;99.90;;;;;;4979107;28;20189;-78
2022/07/02 03:36:11;;;;;;;4.70;3.43;;;12.70;99.90;;;;;;4996461;28;20510;-77
2022/07/02 03:38:38;;;;;;;3.93;2.87;;;12.70;99.90;;;;;;4997242;28;20197;-78
2022/07/02 03:41:03;;;;;;;2.73;2.53;;;12.60;99.90;;;;;;4997104;28;20901;-75
2022/07/02 03:43:29;;;;;;;2.97;2.63;;;12.60;99.90;;;;;;5011980;28;20497;-75
2022/07/02 03:45:55;;;;;;;3.40;3.10;;;12.60;99.90;;;;;;5011912;28;20205;-76
2022/07/02 03:48:20;;;;;;;3.10;2.60;;;12.50;99.90;;;;;;5012915;28;20513;-77
2022/07/02 03:50:46;;;;;;;2.80;2.60;;;12.60;99.90;;;;;;4978781;28;20185;-78
2022/07/02 03:53:12;;;;;;;2.63;2.43;;;12.60;99.90;;;;;;4995898;28;20816;-78
2022/07/02 03:55:37;;;;;;;3.07;2.77;;;12.60;99.90;;;;;;4979460;28;20212;-78
2022/07/02 03:58:03;;;;;;;3.13;2.77;;;12.60;99.90;;;;;;5011795;28;20226;-77
2022/07/02 04:00:28;;;;;;;4.70;2.83;;;12.70;99.90;;;;;;4995523;28;20661;-78
2022/07/02 04:02:54;;;;;;;3.70;2.60;;;12.70;99.90;;;;;;4994988;28;20235;-77
2022/07/02 04:05:20;;;;;;;4.80;2.20;;;12.70;99.90;;;;;;4994717;28;20216;-79
2022/07/02 04:07:46;;;;;;;21.80;11.70;;;12.70;99.90;;;;;;4996435;28;20189;-78
2022/07/02 04:10:12;;;;;;;8.87;5.80;;;12.80;99.90;;;;;;5012564;28;20187;-78
2022/07/02 04:12:37;;;;;;;7.53;3.30;;;12.80;99.90;;;;;;5013581;28;20847;-79
2022/07/02 04:15:04;;;;;;;7.00;3.40;;;12.70;99.90;;;;;;4980929;28;20213;-80
2022/07/02 04:17:29;;;;;;;2.77;2.50;;;12.80;99.90;;;;;;4996758;28;20220;-81
2022/07/02 04:19:55;;;;;;;4.60;3.10;;;12.90;99.90;;;;;;4999328;28;20498;-80
2022/07/02 04:22:21;;;;;;;2.90;2.70;;;12.90;99.90;;;;;;4998677;28;20189;-80
2022/07/02 04:24:47;;;;;;;3.13;2.80;;;13.20;99.90;;;;;;4982466;28;20459;-80
2022/07/02 04:27:12;;;;;;;4.13;2.70;;;13.10;99.90;;;;;;4997403;28;20229;-78
2022/07/02 04:29:38;;;;;;;8.30;3.07;;;13.10;99.90;;;;;;4994559;28;20198;-76
2022/07/02 04:32:04;;;;;;;4.10;2.80;;;13.10;99.90;;;;;;4977665;28;20224;-76
2022/07/02 04:34:30;;;;;;;3.77;3.00;;;13.20;99.90;;;;;;4996174;28;20280;-78
2022/07/02 04:36:55;;;;;;;5.60;2.80;;;13.20;99.90;;;;;;5013882;28;20475;-77
2022/07/02 04:39:21;;;;;;;4.27;3.30;;;13.30;99.90;;;;;;4994309;28;20231;-78
2022/07/02 04:41:47;;;;;;;5.50;3.53;;;13.30;99.90;;;;;;5012313;28;20864;-77
2022/07/02 04:44:12;;;;;;;4.60;4.03;;;13.40;99.90;;;;;;4993632;28;20623;-73
2022/07/02 04:46:38;;;;;;;4.90;3.80;;;13.50;99.90;;;;;;5000824;28;20211;-78
2022/07/02 04:49:03;;;;;;;4.17;3.77;;;13.50;99.90;;;;;;4994346;28;20308;-78
2022/07/02 04:51:29;;;;;;;4.57;3.67;;;13.50;99.90;;;;;;5011409;28;20270;-78
2022/07/02 04:53:55;;;;;;;7.73;3.70;;;13.60;99.90;;;;;;4978431;28;20224;-77
2022/07/02 04:56:20;;;;;;;3.30;2.80;;;13.70;99.90;;;;;;4993196;28;20212;-77
2022/07/02 04:58:46;;;;;;;4.13;2.93;;;13.80;99.90;;;;;;4994832;28;20279;-79
2022/07/02 05:01:11;;;;;;;4.97;3.30;;;13.90;99.90;;;;;;5011811;28;20209;-79
2022/07/02 05:03:37;;;;;;;3.03;2.83;;;14.00;99.90;;;;;;4993867;28;20717;-79
2022/07/02 05:06:03;;;;;;;4.37;3.37;;;14.00;99.90;;;;;;4977052;28;20209;-78
2022/07/02 05:08:29;;;;;;;3.80;2.70;;;14.00;99.90;;;;;;4993266;28;20196;-76
2022/07/02 05:10:55;;;;;;;3.07;2.47;;;14.20;99.90;;;;;;4977015;28;20212;-79
2022/07/02 05:13:22;;;;;;;3.23;2.60;;;14.40;99.90;;;;;;5011119;28;20619;-78
2022/07/02 05:15:48;;;;;;;5.07;2.70;;;14.40;99.90;;;;;;5010686;28;20440;-78
2022/07/02 05:18:14;;;;;;;2.70;2.50;;;14.40;99.90;;;;;;4993162;28;20531;-78
2022/07/02 05:20:40;;;;;;;8.17;3.27;;;14.60;99.90;;;;;;4993026;28;20424;-79
2022/07/02 05:23:06;;;;;;;3.53;3.00;;;14.70;99.90;;;;;;5011136;28;20412;-78
2022/07/02 05:25:32;;;;;;;3.00;2.80;;;14.80;99.90;;;;;;4992927;28;20872;-76
2022/07/02 05:27:57;;;;;;;2.80;2.40;;;14.90;99.90;;;;;;5010416;28;20268;-78
2022/07/02 05:30:23;;;;;;;4.63;2.53;;;15.00;99.90;;;;;;4976680;28;20196;-76
2022/07/02 05:32:49;;;;;;;3.10;2.90;;;15.20;99.90;;;;;;5010894;28;20181;-78
2022/07/02 05:35:14;;;;;;;3.57;3.27;;;15.30;99.90;;;;;;4992925;28;20641;-78
2022/07/02 05:37:40;;;;;;;3.63;3.03;;;15.30;99.90;;;;;;4976809;28;20233;-76
2022/07/02 05:40:07;;;;;;;2.83;2.63;;;15.50;99.90;;;;;;5012190;28;20201;-80
2022/07/02 05:42:32;;;;;;;3.57;2.60;;;15.50;99.90;;;;;;4993147;28;20177;-80
2022/07/02 05:44:58;;;;;;;3.60;2.50;;;15.60;99.90;;;;;;5010479;28;21054;-78
2022/07/02 05:47:24;;;;;;;2.67;2.47;;;15.80;99.90;;;;;;4992138;28;20189;-78
2022/07/02 05:49:49;;;;;;;2.87;2.00;;;15.90;99.90;;;;;;4975727;28;20228;-78
2022/07/02 05:52:17;;;;;;;5.63;2.60;;;16.00;99.90;;;;;;4991372;28;20888;-78
2022/07/02 05:54:43;;;;;;;3.43;2.03;;;16.10;99.90;;;;;;4992201;28;20691;-78
2022/07/02 05:57:09;;;;;;;2.77;2.33;;;16.20;99.90;;;;;;4975901;28;21136;-78
2022/07/02 05:59:36;;;;;;;3.77;3.20;;;16.30;99.90;;;;;;5009569;28;20513;-78
2022/07/02 06:02:05;;;;;;;5.10;2.50;;;16.40;99.90;;;;;;4992367;28;20786;-78
2022/07/02 06:04:33;;;;;;;2.93;2.40;;;16.50;99.90;;;;;;4991646;28;20449;-78
2022/07/02 06:09:44;;;;;;;5.10;3.10;;;16.70;99.90;;;;;;4994906;28;20405;-78
2022/07/02 06:12:10;;;;;;;4.53;2.00;;;16.70;99.90;;;;;;4975744;28;20429;-78
2022/07/02 06:14:35;;;;;;;3.83;2.33;;;16.80;99.90;;;;;;4975895;28;20213;-78
2022/07/02 06:17:01;;;;;;;2.20;2.00;;;16.90;99.90;;;;;;4976136;28;20222;-78
2022/07/02 06:19:27;;;;;;;2.40;1.47;;;17.30;99.90;;;;;;4992412;28;20189;-78
2022/07/02 06:21:53;;;;;;;2.03;1.83;;;17.20;99.90;;;;;;4975710;28;20184;-78
2022/07/02 06:24:18;;;;;;;2.20;2.00;;;17.40;99.90;;;;;;4991817;28;20208;-78
2022/07/02 06:26:44;;;;;;;3.80;1.80;;;17.50;99.90;;;;;;5009705;28;20241;-78
2022/07/02 06:29:10;;;;;;;2.43;1.87;;;17.50;99.90;;;;;;4991826;28;20253;-78
2022/07/02 06:31:36;;;;;;;1.83;1.70;;;17.40;99.90;;;;;;4992017;28;20198;-78
2022/07/02 06:34:02;;;;;;;3.77;1.70;;;17.50;99.90;;;;;;4991985;28;20788;-78
2022/07/02 06:36:28;;;;;;;1.97;1.60;;;17.60;99.90;;;;;;5009667;28;21053;-78
2022/07/02 06:38:54;;;;;;;4.23;2.57;;;17.70;99.90;;;;;;5009866;28;20482;-78
2022/07/02 06:44:05;;;;;;;1.67;1.20;;;17.90;99.90;;;;;;5009943;28;20472;-78
2022/07/02 06:46:31;;;;;;;1.80;1.70;;;17.90;99.90;;;;;;4992140;28;20423;-77
2022/07/02 06:48:57;;;;;;;2.03;1.40;;;18.10;99.90;;;;;;5010161;28;20928;-78
2022/07/02 06:51:22;;;;;;;3.97;1.60;;;18.20;99.90;;;;;;5009875;28;20442;-78
2022/07/02 06:53:48;;;;;;;1.70;1.57;;;18.30;99.90;;;;;;5009709;28;20189;-78
2022/07/02 06:56:14;;;;;;;2.30;1.20;;;18.30;99.90;;;;;;5009376;28;20208;-79
2022/07/02 06:58:39;;;;;;;2.50;1.90;;;18.40;99.90;;;;;;5009572;28;20187;-78
2022/07/02 07:01:05;;;;;;;1.63;1.53;;;18.50;99.90;;;;;;5009198;28;20183;-77
2022/07/02 07:03:31;;;;;;;3.43;1.50;;;18.70;99.90;;;;;;5009703;28;20190;-79
2022/07/02 07:05:56;;;;;;;2.60;1.10;;;18.90;99.90;;;;;;5013047;28;20247;-78
2022/07/02 07:08:22;;;;;;;2.33;1.70;;;19.00;99.90;;;;;;5013184;28;20594;-78
2022/07/02 07:10:47;;;;;;;3.00;1.73;;;19.10;99.90;;;;;;5013258;28;20930;-77
2022/07/02 07:13:13;;;;;;;3.30;1.37;;;19.20;99.90;;;;;;5013219;28;20187;-78
2022/07/02 07:15:39;;;;;;;1.77;1.00;;;19.20;99.90;;;;;;4978318;28;20204;-78
2022/07/02 07:18:04;;;;;;;1.40;1.00;;;19.30;99.90;;;;;;5011810;28;20211;-78
2022/07/02 07:20:32;;;;;;;1.10;0.83;;;19.50;99.90;;;;;;4994405;28;20204;-77
2022/07/02 07:22:59;;;;;;;1.87;1.20;;;19.50;99.90;;;;;;4994325;28;20277;-78
2022/07/02 07:25:26;;;;;;;3.20;1.33;;;19.40;99.90;;;;;;5011721;28;20546;-77
2022/07/02 07:27:51;;;;;;;3.83;1.30;;;19.40;99.90;;;;;;4978236;28;20521;-78
2022/07/02 07:30:17;;;;;;;2.50;0.83;;;19.40;99.90;;;;;;5011679;28;21051;-78
2022/07/02 07:32:43;;;;;;;2.40;1.00;;;19.40;99.90;;;;;;4994483;28;20211;-78
2022/07/02 07:35:09;;;;;;;2.70;1.00;;;19.60;99.90;;;;;;5011996;28;20204;-79
2022/07/02 07:37:36;;;;;;;2.30;1.07;;;19.60;99.90;;;;;;5011883;28;20268;-78
2022/07/02 07:40:06;;;;;;;1.50;0.80;;;19.60;99.90;;;;;;5011607;28;20427;-78
2022/07/02 07:42:32;;;;;;;0.80;0.53;;;19.70;99.90;;;;;;4994361;28;20509;-78
2022/07/02 07:44:57;;;;;;;1.30;0.70;;;19.60;99.90;;;;;;5012795;28;20447;-78
2022/07/02 07:47:23;;;;;;;0.90;0.67;;;19.70;99.90;;;;;;4995248;28;20797;-79
2022/07/02 07:49:49;;;;;;;1.40;0.50;;;19.80;99.90;;;;;;4994644;28;20296;-80
2022/07/02 07:52:15;;;;;;;0.90;0.50;;;19.60;99.90;;;;;;4994286;28;20195;-79
2022/07/02 07:54:40;;;;;;;0.80;0.60;;;19.50;99.90;;;;;;4993555;28;20540;-79
2022/07/02 07:57:06;;;;;;;3.10;0.60;;;19.80;99.90;;;;;;5011379;28;20775;-79
2022/07/02 07:59:32;;;;;;;1.43;0.70;;;20.00;99.90;;;;;;5011305;28;20184;-78
2022/07/02 08:01:58;;;;;;;0.90;0.70;;;20.10;99.90;;;;;;5011298;28;20423;-79
2022/07/02 08:04:24;;;;;;;1.50;0.80;;;20.20;99.90;;;;;;5011131;28;20219;-78
2022/07/02 08:06:49;;;;;;;5.70;0.70;;;20.30;99.90;;;;;;5011338;28;20296;-79
2022/07/02 08:09:15;;;;;;;1.97;0.70;;;20.40;99.90;;;;;;5011105;28;21259;-79
2022/07/02 08:11:41;;;;;;;3.43;0.60;;;20.50;99.90;;;;;;4992705;28;20592;-79
2022/07/02 08:14:07;;;;;;;0.80;0.60;;;20.70;99.90;;;;;;5010511;28;20431;-79
2022/07/02 08:16:33;;;;;;;1.03;0.70;;;20.70;99.90;;;;;;4993347;28;20209;-80
2022/07/02 08:18:58;;;;;;;0.87;0.50;;;20.90;99.90;;;;;;4993185;28;20200;-79
2022/07/02 08:21:24;;;;;;;2.87;0.90;;;21.00;99.90;;;;;;4993099;28;20188;-78
2022/07/02 08:23:50;;;;;;;1.03;0.60;;;21.00;99.70;;;;;;4993175;28;20246;-79
2022/07/02 08:26:15;;;;;;;1.30;0.57;;;21.10;99.90;;;;;;4993330;28;20208;-79
2022/07/02 08:28:41;;;;;;;4.53;0.60;;;21.10;98.70;;;;;;5017367;28;20186;-79
2022/07/02 08:31:07;;;;;;;0.80;0.57;;;21.00;99.90;;;;;;4999180;28;20425;-78
2022/07/02 08:33:32;;;;;;;6.10;0.70;;;21.30;99.90;;;;;;4999894;28;20250;-79
2022/07/02 08:35:59;;;;;;;3.40;0.90;;;21.50;99.90;;;;;;4983173;28;20311;-79
2022/07/02 08:38:25;;;;;;;1.37;0.70;;;21.80;99.90;;;;;;4981826;28;20243;-78
2022/07/02 08:40:50;;;;;;;3.00;0.77;;;21.90;99.20;;;;;;5015130;28;20420;-78
2022/07/02 08:43:17;;;;;;;6.77;0.70;;;22.10;97.90;;;;;;5015693;28;20438;-78
2022/07/02 08:45:43;;;;;;;0.80;0.50;;;22.30;98.90;;;;;;5014980;28;20435;-78
2022/07/02 08:48:12;;;;;;;3.23;0.70;;;22.50;97.30;;;;;;5015063;28;20427;-77
2022/07/02 08:50:39;;;;;;;1.63;0.80;;;22.60;96.50;;;;;;4997167;28;20420;-78
2022/07/02 08:53:05;;;;;;;1.10;0.60;;;22.80;95.70;;;;;;5014102;28;20419;-76
2022/07/02 08:55:35;;;;;;;0.80;0.50;;;22.90;95.40;;;;;;5016527;28;20444;-79
2022/07/02 08:58:01;;;;;;;0.90;0.67;;;22.90;93.50;;;;;;4993940;28;20483;-77
2022/07/02 09:00:28;;;;;;;0.93;0.60;;;23.20;93.00;;;;;;5010822;28;21071;-78
2022/07/02 09:02:56;;;;;;;2.40;0.90;;;23.30;92.50;;;;;;4992812;28;20419;-77
2022/07/02 09:05:25;;;;;;;0.80;0.80;;;23.50;91.90;;;;;;5011955;28;20450;-78
2022/07/02 09:07:51;;;;;;;4.30;0.63;;;23.60;90.50;;;;;;5011275;28;20437;-79
2022/07/02 09:10:20;;;;;;;0.90;0.53;;;23.80;90.10;;;;;;4993545;28;20460;-77
2022/07/02 09:12:47;;;;;;;2.03;0.80;;;23.90;91.00;;;;;;5012002;28;20425;-76
2022/07/02 09:15:14;;;;;;;3.57;0.90;;;24.00;87.20;;;;;;5010119;28;20448;-78
2022/07/02 09:17:41;;;;;;;1.07;0.80;;;24.10;88.70;;;;;;4976269;28;20469;-78
2022/07/02 09:20:08;;;;;;;3.20;0.70;;;24.20;83.60;;;;;;5010165;28;20444;-77
2022/07/02 09:22:37;;;;;;;3.90;0.80;;;24.40;88.50;;;;;;5009643;28;20429;-77
2022/07/02 09:25:14;;;;;;;1.33;0.73;;;24.40;82.70;;;;;;5010759;28;21129;-79
2022/07/02 09:27:40;;;;;;;5.03;0.70;;;24.60;83.70;;;;;;5011940;28;20505;-79
2022/07/02 09:30:09;;;;;;;0.70;0.50;;;24.80;82.50;;;;;;5009938;28;20533;-78
2022/07/02 09:32:43;;;;;;;2.20;0.60;;;24.70;82.00;;;;;;5014208;28;20462;-79
2022/07/02 09:35:20;;;;;;;1.23;0.60;;;24.60;83.40;;;;;;5012682;28;20465;-78
2022/07/02 09:37:48;;;;;;;0.80;0.60;;;24.70;77.20;;;;;;4977723;28;20459;-78
2022/07/02 09:40:15;;;;;;;3.23;0.73;;;24.80;77.10;;;;;;5011344;28;20461;-79
2022/07/02 09:42:46;;;;;;;1.83;0.80;;;25.10;78.30;;;;;;5009450;28;20922;-76
2022/07/02 09:45:13;;;;;;;0.90;0.63;;;25.30;75.20;;;;;;4991424;28;20470;-76
2022/07/02 09:47:41;;;;;;;1.13;0.50;;;25.40;75.70;;;;;;4991440;28;20501;-77
2022/07/02 09:50:08;;;;;;;1.10;0.60;;;25.50;72.90;;;;;;4992315;28;20429;-77
2022/07/02 09:52:34;;;;;;;8.23;0.70;;;24.90;72.10;;;;;;4992342;28;20435;-78
2022/07/02 09:55:00;;;;;;;1.30;0.70;;;25.20;77.20;;;;;;4991896;28;20980;-78
2022/07/02 09:57:26;;;;;;;1.90;0.50;;;24.90;74.60;;;;;;5009673;28;20278;-79
2022/07/02 09:59:52;;;;;;;1.10;0.50;;;24.90;72.40;;;;;;4996633;28;20423;-78
2022/07/02 10:02:22;;;;;;;2.40;0.60;;;24.90;75.90;;;;;;5016646;28;20434;-79
2022/07/02 10:04:51;;;;;;;2.03;0.60;;;24.90;72.70;;;;;;5015818;28;20468;-78
2022/07/02 10:07:17;;;;;;;2.60;0.60;;;25.20;74.50;;;;;;4981477;28;20814;-78
2022/07/02 10:09:42;;;;;;;0.80;0.50;;;25.00;71.90;;;;;;5014193;28;20550;-78
2022/07/02 10:12:09;;;;;;;3.17;0.60;;;25.40;73.20;;;;;;4996442;28;20510;-78
2022/07/02 10:14:37;;;;;;;2.10;0.60;;;25.50;73.30;;;;;;5014009;28;20212;-79
2022/07/02 10:17:03;;;;;;;1.33;0.60;;;26.00;81.10;;;;;;4999905;28;20496;-81
2022/07/02 10:19:31;;;;;;;0.80;0.50;;;26.20;74.00;;;;;;5018644;28;20430;-81
2022/07/02 10:21:58;;;;;;;1.33;0.60;;;26.00;74.70;;;;;;5000749;28;20808;-81
2022/07/02 10:24:25;;;;;;;0.90;0.50;;;26.00;68.60;;;;;;5019776;28;20451;-80
2022/07/02 10:26:54;;;;;;;0.80;0.50;;;25.90;73.60;;;;;;4991473;28;20427;-79
2022/07/02 10:29:21;;;;;;;4.87;0.60;;;25.90;69.30;;;;;;5004683;28;20427;-77
2022/07/02 10:31:57;;;;;;;0.87;0.50;;;25.80;68.30;;;;;;5035986;28;20404;-78
2022/07/02 10:34:57;;;;;;;2.60;0.70;;;25.90;72.30;;;;;;5036568;28;20441;-78
2022/07/02 10:37:23;;;;;;;1.00;0.60;;;25.70;68.10;;;;;;5014383;28;20471;-78
2022/07/02 10:39:48;;;;;;;0.80;0.60;;;25.70;70.70;;;;;;5009498;28;20470;-79
2022/07/02 10:42:14;;;;;;;1.27;0.70;;;25.80;73.50;;;;;;5008512;28;20889;-80
2022/07/02 10:44:42;;;;;;;0.80;0.50;;;25.60;68.40;;;;;;5009980;28;20247;-79
2022/07/02 10:47:28;;;;;;;1.83;0.50;;;25.20;66.30;;;;;;5028165;28;20183;-79
2022/07/02 10:50:00;;;;;;;1.63;0.50;;;25.40;67.50;;;;;;5028786;28;20428;-79
2022/07/02 10:52:52;;;;;;;0.93;0.63;;;25.50;74.30;;;;;;5009081;28;20452;-78
2022/07/02 10:55:28;;;;;;;1.20;0.80;;;25.60;71.90;;;;;;5006625;28;20452;-80
2022/07/02 10:58:03;;;;;;;1.60;0.70;;;25.50;71.60;;;;;;5006742;28;20562;-79
2022/07/02 11:00:33;;;;;;;0.80;0.60;;;25.30;70.70;;;;;;5007950;28;20430;-81
2022/07/02 11:03:10;;;;;;;1.67;0.60;;;25.50;75.60;;;;;;5024218;28;20928;-80
2022/07/02 11:05:51;;;;;;;3.23;0.80;;;25.40;74.40;;;;;;5007034;28;20439;-79
2022/07/02 11:09:01;;;;;;;0.90;0.50;;;25.50;73.70;;;;;;5021843;28;20601;-80
2022/07/02 11:11:45;;;;;;;0.90;0.67;;;25.70;76.40;;;;;;5022557;28;20503;-79
2022/07/02 11:14:11;;;;;;;0.90;0.70;;;25.90;74.50;;;;;;5005128;28;20435;-80
2022/07/02 11:16:48;;;;;;;0.80;0.50;;;26.00;74.80;;;;;;5023868;28;20468;-80
2022/07/02 11:19:18;;;;;;;2.00;0.70;;;26.00;78.60;;;;;;5004137;28;20434;-78
2022/07/02 11:21:46;;;;;;;1.00;0.80;;;26.00;76.50;;;;;;5010178;28;20542;-77
2022/07/02 11:24:19;;;;;;;1.03;0.70;;;26.10;78.40;;;;;;5009301;28;20424;-77
2022/07/02 11:26:45;;;;;;;0.80;0.50;;;26.10;76.30;;;;;;4991303;28;20441;-77
2022/07/02 11:29:11;;;;;;;0.90;0.77;;;26.20;80.10;;;;;;5008486;28;20493;-78
2022/07/02 11:31:40;;;;;;;1.10;0.70;;;26.10;78.70;;;;;;5008555;28;20427;-77
2022/07/02 11:34:06;;;;;;;1.17;0.70;;;26.30;77.50;;;;;;5008805;28;20424;-77
2022/07/02 11:36:32;;;;;;;1.03;0.93;;;26.40;78.50;;;;;;5008451;28;20468;-77
2022/07/02 11:38:58;;;;;;;1.33;0.80;;;26.40;77.30;;;;;;5008141;28;20436;-77
2022/07/02 11:41:26;;;;;;;0.90;0.60;;;26.30;78.40;;;;;;5008369;28;20421;-77
2022/07/02 11:43:53;;;;;;;1.60;1.10;;;26.20;82.60;;;;;;5008095;28;20216;-76
2022/07/02 11:46:24;;;;;;;2.40;0.57;;;26.10;82.60;;;;;;5008095;28;20455;-77
2022/07/02 11:48:51;;;;;;;2.50;0.70;;;26.30;81.30;;;;;;5007834;28;20929;-77
2022/07/02 11:51:19;;;;;;;1.23;0.97;;;26.10;80.50;;;;;;5011268;28;20431;-77
2022/07/02 11:54:03;;;;;;;1.00;0.70;;;26.00;79.70;;;;;;5011446;28;20458;-76
2022/07/02 11:56:31;;;;;;;1.47;0.83;;;26.00;76.90;;;;;;5011411;28;20566;-77
2022/07/02 11:58:57;;;;;;;1.03;0.90;;;26.30;79.90;;;;;;5011571;28;20439;-77
2022/07/02 12:01:28;;;;;;;0.90;0.70;;;26.40;81.40;;;;;;4993910;28;20431;-77
2022/07/02 12:04:00;;;;;;;6.70;0.70;;;26.40;83.70;;;;;;5011179;28;20467;-76
2022/07/02 12:06:35;;;;;;;0.90;0.70;;;26.40;80.40;;;;;;4993289;28;20447;-76
2022/07/02 12:09:02;;;;;;;0.80;0.73;;;26.40;80.90;;;;;;5013260;28;20946;-77
2022/07/02 12:11:28;;;;;;;1.20;0.70;;;26.30;80.30;;;;;;5011674;28;20424;-77
2022/07/02 12:13:55;;;;;;;0.90;0.70;;;26.30;80.50;;;;;;5010921;28;21088;-77
2022/07/02 12:16:24;;;;;;;2.73;0.80;;;26.30;79.10;;;;;;5010414;28;20228;-77
2022/07/02 12:19:07;;;;;;;1.40;0.90;;;26.10;80.30;;;;;;5010483;28;20434;-77
2022/07/02 12:21:35;;;;;;;0.80;0.60;;;26.40;85.30;;;;;;5010422;28;20424;-77
2022/07/02 12:24:02;;;;;;;1.30;0.80;;;26.20;78.50;;;;;;5009952;28;20426;-77
2022/07/02 12:26:29;;;;;;;5.20;0.80;;;26.30;78.90;;;;;;4992452;28;20432;-77
2022/07/02 12:31:55;;;;;;;1.00;0.70;;;26.20;79.00;;;;;;4995535;28;20431;-77
2022/07/02 12:34:22;;;;;;;5.77;1.03;;;26.40;75.40;;;;;;5010153;28;20473;-76
2022/07/02 12:36:56;;;;;;;0.80;0.60;;;26.40;76.90;;;;;;5010045;28;20472;-77
2022/07/02 12:39:25;;;;;;;2.00;0.60;;;26.20;75.70;;;;;;5009673;28;20455;-76
2022/07/02 12:41:51;;;;;;;1.77;0.70;;;26.40;74.60;;;;;;5010227;28;20475;-76
2022/07/02 12:44:22;;;;;;;1.30;0.50;;;26.40;75.10;;;;;;5009989;28;20550;-77
2022/07/02 12:46:51;;;;;;;2.93;0.60;;;26.20;76.00;;;;;;5010015;28;20432;-76
2022/07/02 12:49:20;;;;;;;1.20;0.80;;;26.40;73.70;;;;;;5010374;28;20510;-76
2022/07/02 12:52:00;;;;;;;1.70;0.90;;;26.40;73.50;;;;;;5010355;28;20486;-76
2022/07/02 12:54:37;;;;;;;1.63;0.50;;;26.70;72.60;;;;;;5010339;28;20894;-76
2022/07/02 12:57:20;;;;;;;0.90;0.60;;;26.80;74.00;;;;;;5010173;28;20818;-76
2022/07/02 12:59:48;;;;;;;1.20;0.70;;;26.70;73.10;;;;;;4992354;28;20440;-77